気象予報士の航空気象 霧の空港

*All archives   *Admin

スポンサーサイト

上記の広告は1ヶ月以上更新のないブログに表示されています。
新しい記事を書く事で広告が消せます。
--:--  |  スポンサー広告  |  EDIT  |  Top↑

2010.04.29 (Thu)

霧の空港

RJAA 281204Z 28004KT 1400 R34L/P1800N R34R/P1800N BR FEW001 BKN002 15/15 Q1012 RMK 1ST001 7ST002 A2990

RJAA 281224Z 27003KT 240V310 1000 R34L/1500D R34R/1200VP1800U FG SCT001 BKN002 15/15 Q1012 RMK 3ST001 7ST002 A2990


夜、成田で霧発生。


当然といえば当然。


雨降って、夕方に晴れたから。


水分補給。


寒気流入。


放射冷却。


わかりやすい。


TAFでは


RJAA 281220Z 2812/2912 34004KT 2000 BR BKN004
TEMPO 2812/2821 0800 FG BKN001
BECMG 2821/2824 20015KT 8000 NSW FEW020
TEMPO 2900/2909 21023G35KT

昨晩、21時過ぎのものだけど、朝6時から9時かけて回復。


気になるのが、その後の南西風の強風予報。


明日は、南風びゅんびゅん?


 GW中のお天気はおおむね良好!


気温も関東以西、最高20度以上。


いい天気。


行楽日和だぁ。



 
ブログランキングに参加しています。
にほんブログ村 環境ブログ 天気・気象学へ
にほんブログ村
応援クリックをおねがします。


以下、アフィリエイトサイトです。



スポンサーサイト
00:16  |  気象・天気  |  TB(0)  |  CM(0)  |  EDIT  |  Top↑

コメントを投稿する


 管理者だけに表示  (非公開コメント投稿可能)

▲PageTop

この記事のトラックバックURL

→http://weathereucalyptus.blog115.fc2.com/tb.php/470-bfdff0a4
この記事にトラックバックする(FC2ブログユーザー)

この記事へのトラックバック

▲PageTop

 | BLOGTOP | 
上記広告は1ヶ月以上更新のないブログに表示されています。新しい記事を書くことで広告を消せます。